»·PEaware :: N973SE KSBP-KOXR

N973SE :: KSBP-KOXR

FLIGHT INFORMATION

Flight Status: Arrived
Operator: Privately registered:
United States
More flights under this callsign
Pilot: Stig E. (4778)
Aircraft: CESSNA 310
(C310)
More flights by this aircraft type
Origin: KSBP San Luis Co Regl
United States
Destination: KOXR Oxnard
United States
More flights between these airports :: More routes between these airports
Route: MISHI RZS
File this flight plan on PilotEdge
Remarks:
Altitude:
(Current/Filed)
11,500ft
Speed:
(Current/Filed)
170kts
Departed: 04-Feb-19 10:52 PM
Arrived: 04-Feb-19 11:43 PM
Distance/Time
Traveled:
94nm/0:51
Distance/Time
To Go:
Arrived

Flight Plot

Page will automatically refresh every two minutes.

Flight plan parsing failed; only flown route is shown


Map Options




Map Legend


Flown Route
Filed Route
Departure Airport
Arrival Airport
Navaid (VOR, NDB)
Fix

Horizontal Profiles

Position Reports

Time Latitude Longitude Heading Altitude Ground
Speed
04-Feb-19 22:41 35.238241 -120.639983 0 215ft 0kts
04-Feb-19 22:42 35.238241 -120.639983 308 215ft 0kts
04-Feb-19 22:43 35.238241 -120.639983 308 216ft 0kts
04-Feb-19 22:44 35.238241 -120.639983 308 216ft 0kts
04-Feb-19 22:45 35.238241 -120.639983 308 216ft 0kts
04-Feb-19 22:46 35.238184 -120.640268 195 216ft 6kts
04-Feb-19 22:47 35.236080 -120.636863 125 216ft 16kts
04-Feb-19 22:48 35.233938 -120.633132 125 215ft 10kts
04-Feb-19 22:49 35.233119 -120.632030 241 216ft 0kts
04-Feb-19 22:50 35.232953 -120.632432 243 216ft 8kts
04-Feb-19 22:51 35.244432 -120.653285 303 761ft 128kts
04-Feb-19 22:52 35.233408 -120.687365 163 1805ft 160kts
04-Feb-19 22:53 35.206419 -120.644531 118 2821ft 164kts
04-Feb-19 22:54 35.195611 -120.589947 102 3829ft 165kts
04-Feb-19 22:55 35.176557 -120.539252 124 4834ft 167kts
04-Feb-19 22:56 35.149703 -120.492861 125 5833ft 167kts
04-Feb-19 22:57 35.119919 -120.449991 136 6830ft 165kts
04-Feb-19 22:58 35.086082 -120.411671 136 7832ft 166kts
04-Feb-19 22:59 35.051967 -120.373323 137 8832ft 168kts
04-Feb-19 23:00 35.016620 -120.333679 137 9462ft 187kts
04-Feb-19 23:01 34.976438 -120.288649 137 9457ft 200kts
04-Feb-19 23:02 34.935099 -120.242372 137 9456ft 202kts
04-Feb-19 23:03 34.894272 -120.196421 136 9456ft 199kts
04-Feb-19 23:04 34.853770 -120.150683 137 9456ft 198kts
04-Feb-19 23:05 34.813238 -120.105393 137 9456ft 198kts
04-Feb-19 23:06 34.772521 -120.060039 137 9456ft 198kts
04-Feb-19 23:07 34.731857 -120.014820 137 9456ft 198kts
04-Feb-19 23:08 34.691181 -119.969653 137 9456ft 198kts
04-Feb-19 23:09 34.650464 -119.924502 137 9456ft 198kts
04-Feb-19 23:10 34.610205 -119.879922 137 9456ft 198kts
04-Feb-19 23:11 34.569434 -119.834836 137 9456ft 198kts
04-Feb-19 23:12 34.528656 -119.789805 137 9456ft 198kts
04-Feb-19 23:13 34.490242 -119.741904 124 9456ft 198kts
04-Feb-19 23:14 34.472008 -119.678875 113 9203ft 201kts
04-Feb-19 23:15 34.447943 -119.617745 115 8704ft 199kts
04-Feb-19 23:16 34.423853 -119.557763 115 8201ft 196kts
04-Feb-19 23:17 34.405104 -119.510586 121 7804ft 195kts
04-Feb-19 23:18 34.381375 -119.452311 122 7306ft 189kts
04-Feb-19 23:19 34.358591 -119.395916 120 6796ft 182kts
04-Feb-19 23:20 34.336602 -119.341552 119 6285ft 177kts
04-Feb-19 23:21 34.313873 -119.285407 111 5783ft 194kts
04-Feb-19 23:22 34.290576 -119.227806 118 5294ft 181kts
04-Feb-19 23:23 34.268462 -119.173482 119 4784ft 179kts
04-Feb-19 23:24 34.246304 -119.119067 119 4278ft 181kts
04-Feb-19 23:25 34.223819 -119.063851 120 3770ft 185kts
04-Feb-19 23:26 34.201063 -119.007228 119 3263ft 187kts
04-Feb-19 23:27 34.179008 -118.952302 119 3152ft 170kts
04-Feb-19 23:28 34.178646 -118.951386 119 3152ft 169kts
04-Feb-19 23:29 34.178646 -118.951386 119 3152ft 169kts
04-Feb-19 23:30 34.178646 -118.951386 119 3152ft 169kts
04-Feb-19 23:31 34.178646 -118.951386 119 3152ft 169kts
04-Feb-19 23:32 34.178646 -118.951386 119 3152ft 169kts
04-Feb-19 23:33 34.172373 -118.935461 119 3153ft 163kts
04-Feb-19 23:34 34.146936 -118.916195 237 3152ft 122kts
04-Feb-19 23:35 34.160628 -118.954031 297 3157ft 129kts
04-Feb-19 23:36 34.180781 -118.990151 297 3157ft 129kts
04-Feb-19 23:37 34.196831 -119.026850 272 2903ft 122kts
04-Feb-19 23:38 34.198972 -119.068696 267 2204ft 127kts
04-Feb-19 23:39 34.199645 -119.112139 267 1493ft 131kts
04-Feb-19 23:40 34.200177 -119.156544 268 775ft 133kts
04-Feb-19 23:41 34.200747 -119.199017 269 47ft 103kts
04-Feb-19 23:42 34.198947 -119.206408 114 39ft 10kts
04-Feb-19 23:43 34.199030 -119.205904 1 40ft 0kts
04-Feb-19 23:44 34.199030 -119.205904 1 40ft 0kts
04-Feb-19 23:45 34.199030 -119.205904 1 40ft 0kts
04-Feb-19 23:46 34.199030 -119.205904 1 40ft 0kts
04-Feb-19 23:47 34.199030 -119.205904 1 40ft 0kts
04-Feb-19 23:48 34.199030 -119.205904 1 40ft 0kts
04-Feb-19 23:49 34.199030 -119.205904 1 40ft 0kts
04-Feb-19 23:50 34.199030 -119.205904 1 40ft 0kts
04-Feb-19 23:51 34.199030 -119.205904 1 40ft 0kts
04-Feb-19 23:52 34.199030 -119.205904 1 40ft 0kts
04-Feb-19 23:53 34.199030 -119.205904 1 40ft 0kts
04-Feb-19 23:54 34.199030 -119.205904 1 40ft 0kts
04-Feb-19 23:55 34.199030 -119.205904 1 40ft 0kts
04-Feb-19 23:56 34.199030 -119.205904 1 40ft 0kts

Navigation Log

Ident Type
Flight plan parsing failed, navigation log unavailable